Time;durP1;ratioP1;P1;durP2;ratioP2;P2;SDS_P1;SDS_P2;PMS_P1;PMS_P2;Temp;Humidity;BMP_temperature;BMP_pressure;BME280_temperature;BME280_humidity;BME280_pressure;Samples;Min_cycle;Max_cycle;Signal;HPM_P1;HPM_P2
2022/05/03 00:02:20;;;;;;;19.25;11.55;;;;;;;;;;4910932;29;20040;-73
2022/05/03 00:05:09;;;;;;;13.23;10.05;;;;;;;;;;4909861;29;20107;-74
2022/05/03 00:07:54;;;;;;;17.60;10.95;;;;;;;;;;4908163;29;20548;-75
2022/05/03 00:10:28;;;;;;;18.75;10.63;;;;;;;;;;4907056;29;20540;-74
2022/05/03 00:13:02;;;;;;;15.23;10.98;;;;;;;;;;4905876;29;20048;-74
2022/05/03 00:15:32;;;;;;;22.17;10.35;;;;;;;;;;4908713;29;20040;-74
2022/05/03 00:17:59;;;;;;;14.18;10.45;;;;;;;;;;4911370;29;20048;-73
2022/05/03 00:20:26;;;;;;;11.52;9.30;;;;;;;;;;4908176;29;20059;-74
2022/05/03 00:22:54;;;;;;;17.08;9.77;;;;;;;;;;4909574;29;20032;-73
2022/05/03 00:25:20;;;;;;;17.63;10.65;;;;;;;;;;4957424;28;20522;-73
2022/05/03 00:27:46;;;;;;;18.70;11.02;;;;;;;;;;4966764;28;20484;-73
2022/05/03 00:30:12;;;;;;;13.00;9.57;;;;;;;;;;4964802;28;20073;-74
2022/05/03 00:32:40;;;;;;;14.77;9.15;;;;;;;;;;4967125;28;20427;-73
2022/05/03 00:35:08;;;;;;;9.60;8.23;;;;;;;;;;4967790;28;20034;-73
2022/05/03 00:37:34;;;;;;;12.35;9.00;;;;;;;;;;4965369;28;20030;-73
2022/05/03 00:39:59;;;;;;;12.43;9.10;;;;;;;;;;5029394;28;20110;-73
2022/05/03 00:42:40;;;;;;;12.45;8.40;;;;;;;;;;5037244;28;20025;-73
2022/05/03 00:45:14;;;;;;;11.32;8.70;;;;;;;;;;5042351;28;20090;-73
2022/05/03 00:47:51;;;;;;;9.10;8.20;;;;;;;;;;5035505;28;20025;-74
2022/05/03 00:50:39;;;;;;;10.50;8.30;;;;;;;;;;5042047;28;20036;-73
2022/05/03 00:53:09;;;;;;;8.10;7.30;;;;;;;;;;5038553;28;20037;-74
2022/05/03 00:56:09;;;;;;;12.15;7.53;;;;;;;;;;5039748;28;20132;-73
2022/05/03 00:58:48;;;;;;;8.65;7.75;;;;;;;;;;5047393;28;20024;-73
2022/05/03 01:01:33;;;;;;;10.32;7.07;;;;;;;;;;5043234;28;20025;-73
2022/05/03 01:04:37;;;;;;;13.05;7.45;;;;;;;;;;5043810;28;20048;-73
2022/05/03 01:07:32;;;;;;;8.07;7.00;;;;;;;;;;5039010;28;20053;-72
2022/05/03 01:10:16;;;;;;;9.25;7.43;;;;;;;;;;5041807;28;21571;-72
2022/05/03 01:12:57;;;;;;;11.35;7.10;;;;;;;;;;5044026;28;20122;-74
2022/05/03 01:15:30;;;;;;;9.93;6.78;;;;;;;;;;5042488;28;20024;-73
2022/05/03 01:18:07;;;;;;;7.75;6.97;;;;;;;;;;5036886;28;20061;-73
2022/05/03 01:20:36;;;;;;;9.65;6.82;;;;;;;;;;5042253;28;20033;-74
2022/05/03 01:23:29;;;;;;;8.70;6.55;;;;;;;;;;5042573;28;20044;-74
2022/05/03 01:26:04;;;;;;;9.18;6.40;;;;;;;;;;5045040;28;20040;-75
2022/05/03 01:28:49;;;;;;;9.52;6.50;;;;;;;;;;5040718;28;20030;-74
2022/05/03 01:31:15;;;;;;;11.30;6.47;;;;;;;;;;5042747;28;20037;-73
2022/05/03 01:33:42;;;;;;;6.60;6.00;;;;;;;;;;5042823;28;20025;-74
2022/05/03 01:36:09;;;;;;;9.52;6.40;;;;;;;;;;5042546;28;20087;-74
2022/05/03 01:39:07;;;;;;;6.95;6.28;;;;;;;;;;5042811;28;20136;-74
2022/05/03 01:41:46;;;;;;;6.90;6.03;;;;;;;;;;5037892;28;20098;-73
2022/05/03 01:44:38;;;;;;;8.88;6.57;;;;;;;;;;5036386;28;20033;-75
2022/05/03 01:47:29;;;;;;;9.98;6.30;;;;;;;;;;5041025;28;20123;-73
2022/05/03 01:50:20;;;;;;;9.07;6.43;;;;;;;;;;5043508;28;20042;-75
2022/05/03 01:53:27;;;;;;;10.07;6.70;;;;;;;;;;5043279;28;20103;-73
2022/05/03 01:56:14;;;;;;;7.07;6.05;;;;;;;;;;5000811;28;20578;-74
2022/05/03 01:59:07;;;;;;;7.32;6.10;;;;;;;;;;4997540;28;20757;-74
2022/05/03 02:01:55;;;;;;;6.95;5.65;;;;;;;;;;4998595;28;20240;-74
2022/05/03 02:04:36;;;;;;;10.57;5.93;;;;;;;;;;4992655;28;20074;-73
2022/05/03 02:07:20;;;;;;;10.57;5.60;;;;;;;;;;4990653;28;20030;-74
2022/05/03 02:10:05;;;;;;;10.60;5.45;;;;;;;;;;4995857;28;20053;-73
2022/05/03 02:12:32;;;;;;;7.20;5.53;;;;;;;;;;4996211;28;20065;-73
2022/05/03 02:15:06;;;;;;;6.25;5.28;;;;;;;;;;4992348;28;20026;-74
2022/05/03 02:17:44;;;;;;;7.60;5.05;;;;;;;;;;4994588;28;20519;-72
2022/05/03 02:20:34;;;;;;;5.63;4.75;;;;;;;;;;4993519;28;20133;-74
2022/05/03 02:23:25;;;;;;;10.07;5.20;;;;;;;;;;4994967;28;20046;-74
2022/05/03 02:26:03;;;;;;;6.85;4.57;;;;;;;;;;4977305;28;20130;-74
2022/05/03 02:28:51;;;;;;;6.38;5.00;;;;;;;;;;4995965;28;20434;-73
2022/05/03 02:31:30;;;;;;;5.38;4.85;;;;;;;;;;5039438;28;20045;-74
2022/05/03 02:34:22;;;;;;;5.70;5.10;;;;;;;;;;5037270;28;20430;-74
2022/05/03 02:36:59;;;;;;;5.85;4.90;;;;;;;;;;5040033;28;20036;-74
2022/05/03 02:39:28;;;;;;;7.20;4.88;;;;;;;;;;5039375;28;20033;-75
2022/05/03 02:41:58;;;;;;;7.88;4.95;;;;;;;;;;5044210;28;20029;-73
2022/05/03 02:44:31;;;;;;;11.00;4.80;;;;;;;;;;5039100;28;20025;-73
2022/05/03 02:47:11;;;;;;;8.23;4.88;;;;;;;;;;5038150;28;20030;-72
2022/05/03 02:49:58;;;;;;;5.82;5.13;;;;;;;;;;5035350;28;20112;-72
2022/05/03 02:52:31;;;;;;;6.20;4.90;;;;;;;;;;5038009;28;20091;-72
2022/05/03 02:55:16;;;;;;;10.73;5.20;;;;;;;;;;5039225;28;20155;-73
2022/05/03 02:57:57;;;;;;;9.55;4.82;;;;;;;;;;5040179;28;20036;-73
2022/05/03 03:03:36;;;;;;;6.80;4.43;;;;;;;;;;5042402;28;20025;-73
2022/05/03 03:06:03;;;;;;;10.02;4.78;;;;;;;;;;5037081;28;20068;-73
2022/05/03 03:08:43;;;;;;;8.43;5.15;;;;;;;;;;5039416;28;20040;-72
2022/05/03 03:11:15;;;;;;;7.10;4.97;;;;;;;;;;5038266;28;20059;-72
2022/05/03 03:13:49;;;;;;;6.15;4.70;;;;;;;;;;5039091;28;20052;-72
2022/05/03 03:16:25;;;;;;;6.50;4.65;;;;;;;;;;5038493;28;20029;-73
2022/05/03 03:18:52;;;;;;;6.35;4.68;;;;;;;;;;5039203;28;20119;-72
2022/05/03 03:21:24;;;;;;;9.75;4.78;;;;;;;;;;5035245;28;20025;-73
2022/05/03 03:23:52;;;;;;;6.10;4.53;;;;;;;;;;5040550;28;20559;-72
2022/05/03 03:26:20;;;;;;;10.48;4.53;;;;;;;;;;5040617;28;20404;-73
2022/05/03 03:28:47;;;;;;;6.95;4.70;;;;;;;;;;5035897;28;20445;-74
2022/05/03 03:31:15;;;;;;;7.80;5.00;;;;;;;;;;5039047;28;20041;-73
2022/05/03 03:33:41;;;;;;;7.65;5.10;;;;;;;;;;5043872;28;20040;-73
2022/05/03 03:36:08;;;;;;;5.53;4.72;;;;;;;;;;5036743;28;20509;-73
2022/05/03 03:38:45;;;;;;;5.72;4.50;;;;;;;;;;5042279;28;20376;-73
2022/05/03 03:41:11;;;;;;;5.53;4.75;;;;;;;;;;5036515;28;20036;-73
2022/05/03 03:43:37;;;;;;;5.47;4.70;;;;;;;;;;5038804;28;20742;-73
2022/05/03 03:46:03;;;;;;;4.93;4.47;;;;;;;;;;5037302;28;20033;-72
2022/05/03 03:48:29;;;;;;;6.28;4.57;;;;;;;;;;5039033;28;20405;-73
2022/05/03 03:50:57;;;;;;;12.23;4.75;;;;;;;;;;5043151;28;20032;-73
2022/05/03 03:53:23;;;;;;;4.93;4.43;;;;;;;;;;5041691;28;20032;-72
2022/05/03 03:55:49;;;;;;;5.32;4.80;;;;;;;;;;5040011;28;20045;-73
2022/05/03 03:58:16;;;;;;;6.43;5.15;;;;;;;;;;5041469;28;20040;-73
2022/05/03 04:00:42;;;;;;;5.03;4.45;;;;;;;;;;5035811;28;20118;-73
2022/05/03 04:03:08;;;;;;;10.82;5.15;;;;;;;;;;5041790;28;20021;-72
2022/05/03 04:05:35;;;;;;;8.13;5.18;;;;;;;;;;5041423;28;20043;-72
2022/05/03 04:08:01;;;;;;;10.10;5.00;;;;;;;;;;5039049;28;20389;-73
2022/05/03 04:10:27;;;;;;;7.57;4.80;;;;;;;;;;5039598;28;20025;-72
2022/05/03 04:12:53;;;;;;;8.18;4.72;;;;;;;;;;5039458;28;20440;-74
2022/05/03 04:15:19;;;;;;;6.97;5.40;;;;;;;;;;5041325;28;20063;-73
2022/05/03 04:17:45;;;;;;;7.68;4.57;;;;;;;;;;5037004;28;20482;-74
2022/05/03 04:20:12;;;;;;;6.35;4.97;;;;;;;;;;5036755;28;20037;-73
2022/05/03 04:22:38;;;;;;;9.52;4.72;;;;;;;;;;5041733;28;20056;-72
2022/05/03 04:25:05;;;;;;;5.18;4.65;;;;;;;;;;5040468;28;20063;-72
2022/05/03 04:27:31;;;;;;;6.68;4.90;;;;;;;;;;5039893;28;20028;-74
2022/05/03 04:29:58;;;;;;;5.22;4.72;;;;;;;;;;5038607;28;20457;-73
2022/05/03 04:32:29;;;;;;;7.13;4.68;;;;;;;;;;5040007;28;20056;-73
2022/05/03 04:34:55;;;;;;;7.53;4.60;;;;;;;;;;5045848;28;20036;-73
2022/05/03 04:37:21;;;;;;;7.28;4.82;;;;;;;;;;5041042;28;20020;-73
2022/05/03 04:39:47;;;;;;;7.63;4.97;;;;;;;;;;5041436;28;20470;-73
2022/05/03 04:42:13;;;;;;;8.25;4.30;;;;;;;;;;5035508;28;20078;-73
2022/05/03 04:44:38;;;;;;;9.02;4.85;;;;;;;;;;5041560;28;20445;-73
2022/05/03 04:47:05;;;;;;;5.50;5.00;;;;;;;;;;5036877;28;20049;-73
2022/05/03 04:49:31;;;;;;;4.90;4.40;;;;;;;;;;5039517;28;20815;-67
2022/05/03 04:51:57;;;;;;;5.72;4.97;;;;;;;;;;5040120;28;20037;-73
2022/05/03 04:54:23;;;;;;;6.50;5.30;;;;;;;;;;5036771;28;20812;-73
2022/05/03 04:56:53;;;;;;;10.82;4.35;;;;;;;;;;5040316;28;20441;-73
2022/05/03 04:59:18;;;;;;;6.93;4.22;;;;;;;;;;5038241;28;20032;-73
2022/05/03 05:01:44;;;;;;;8.13;4.65;;;;;;;;;;5040276;28;20393;-72
2022/05/03 05:04:10;;;;;;;5.43;4.63;;;;;;;;;;5040185;28;20371;-72
2022/05/03 05:06:36;;;;;;;6.32;4.97;;;;;;;;;;5034943;28;20033;-73
2022/05/03 05:09:01;;;;;;;6.25;5.20;;;;;;;;;;5032685;28;20503;-73
2022/05/03 05:11:27;;;;;;;6.15;4.63;;;;;;;;;;5039028;28;20033;-72
2022/05/03 05:13:53;;;;;;;6.95;4.90;;;;;;;;;;5034865;28;20444;-73
2022/05/03 05:16:19;;;;;;;7.80;4.85;;;;;;;;;;5041447;28;20033;-72
2022/05/03 05:18:45;;;;;;;5.65;4.65;;;;;;;;;;5037723;28;20505;-71
2022/05/03 05:21:11;;;;;;;5.30;4.68;;;;;;;;;;5038406;28;20029;-72
2022/05/03 05:23:37;;;;;;;5.82;4.95;;;;;;;;;;5037536;28;20021;-72
2022/05/03 05:26:03;;;;;;;11.50;5.53;;;;;;;;;;5041341;28;20040;-73
2022/05/03 05:28:29;;;;;;;8.82;5.53;;;;;;;;;;5042291;28;20044;-72
2022/05/03 05:30:55;;;;;;;6.32;5.18;;;;;;;;;;5038158;28;20502;-72
2022/05/03 05:33:21;;;;;;;6.60;5.75;;;;;;;;;;5037086;28;20037;-71
2022/05/03 05:35:48;;;;;;;5.47;4.97;;;;;;;;;;5042144;28;20040;-71
2022/05/03 05:38:15;;;;;;;7.47;5.30;;;;;;;;;;5040603;28;20116;-72
2022/05/03 05:40:41;;;;;;;10.50;5.50;;;;;;;;;;5035022;28;20044;-71
2022/05/03 05:43:07;;;;;;;6.25;5.20;;;;;;;;;;5040428;28;20040;-72
2022/05/03 05:45:33;;;;;;;11.27;5.50;;;;;;;;;;5043802;28;20029;-71
2022/05/03 05:47:59;;;;;;;8.30;5.10;;;;;;;;;;5043195;28;20481;-72
2022/05/03 05:50:25;;;;;;;7.53;5.40;;;;;;;;;;5037394;28;20029;-71
2022/05/03 05:55:36;;;;;;;9.55;4.90;;;;;;;;;;5043220;28;20401;-72
2022/05/03 05:58:04;;;;;;;8.27;5.40;;;;;;;;;;5036529;28;20099;-72
2022/05/03 06:00:30;;;;;;;6.03;5.15;;;;;;;;;;5039729;28;20029;-72
2022/05/03 06:02:56;;;;;;;7.88;5.25;;;;;;;;;;5039109;28;20413;-72
2022/05/03 06:05:21;;;;;;;14.50;6.00;;;;;;;;;;5036718;28;20041;-72
2022/05/03 06:07:47;;;;;;;8.27;5.18;;;;;;;;;;5045571;28;20435;-72
2022/05/03 06:10:13;;;;;;;7.50;5.20;;;;;;;;;;5047978;28;20470;-73
2022/05/03 06:12:39;;;;;;;12.05;5.43;;;;;;;;;;5046731;28;20032;-72
2022/05/03 06:15:05;;;;;;;13.30;6.18;;;;;;;;;;5037627;28;20088;-72
2022/05/03 06:17:31;;;;;;;7.90;5.90;;;;;;;;;;5041754;28;20021;-72
2022/05/03 06:19:57;;;;;;;9.20;5.07;;;;;;;;;;5044327;28;20504;-73
2022/05/03 06:22:23;;;;;;;7.18;5.30;;;;;;;;;;5041015;28;20540;-73
2022/05/03 06:24:49;;;;;;;8.68;5.25;;;;;;;;;;5038991;28;20059;-73
2022/05/03 06:27:15;;;;;;;6.80;4.72;;;;;;;;;;5043226;28;20439;-72
2022/05/03 06:29:41;;;;;;;15.32;4.97;;;;;;;;;;5039002;28;20037;-73
2022/05/03 06:32:10;;;;;;;6.20;4.20;;;;;;;;;;5039201;28;20064;-72
2022/05/03 06:34:37;;;;;;;5.20;3.97;;;;;;;;;;5039727;28;20068;-72
2022/05/03 06:37:04;;;;;;;8.80;4.20;;;;;;;;;;5037836;28;20025;-73
2022/05/03 06:39:29;;;;;;;5.78;4.15;;;;;;;;;;5042624;28;20027;-72
2022/05/03 06:41:55;;;;;;;7.88;4.72;;;;;;;;;;5041095;28;20029;-72
2022/05/03 06:44:22;;;;;;;6.15;4.60;;;;;;;;;;5040059;28;20103;-73
2022/05/03 06:46:49;;;;;;;6.22;4.55;;;;;;;;;;5040742;28;20018;-73
2022/05/03 06:49:15;;;;;;;7.55;4.20;;;;;;;;;;5040256;28;20111;-73
2022/05/03 06:51:41;;;;;;;6.40;3.55;;;;;;;;;;5039221;28;20100;-73
2022/05/03 06:54:07;;;;;;;5.90;4.00;;;;;;;;;;5042432;28;20045;-72
2022/05/03 06:56:35;;;;;;;4.60;4.05;;;;;;;;;;5038919;28;20037;-73
2022/05/03 06:59:08;;;;;;;5.10;4.60;;;;;;;;;;5043164;28;20029;-72
2022/05/03 07:01:35;;;;;;;5.60;4.25;;;;;;;;;;5037187;28;20064;-73
2022/05/03 07:04:01;;;;;;;5.38;3.38;;;;;;;;;;5038928;28;20498;-72
2022/05/03 07:06:27;;;;;;;5.75;3.53;;;;;;;;;;5037603;28;20429;-72
2022/05/03 07:08:52;;;;;;;4.85;3.90;;;;;;;;;;5034192;28;20059;-72
2022/05/03 07:11:18;;;;;;;7.45;4.45;;;;;;;;;;5040957;28;20025;-73
2022/05/03 07:13:44;;;;;;;7.47;4.20;;;;;;;;;;5047135;28;20036;-73
2022/05/03 07:16:10;;;;;;;10.35;4.45;;;;;;;;;;5039251;28;20510;-73
2022/05/03 07:24:05;;;;;;;5.28;4.30;;;;;;;;;;5036476;28;20522;-72
2022/05/03 07:26:30;;;;;;;9.30;3.45;;;;;;;;;;5041222;28;20025;-73
2022/05/03 07:28:56;;;;;;;12.73;4.00;;;;;;;;;;5042197;28;20045;-73
2022/05/03 07:31:22;;;;;;;5.28;4.45;;;;;;;;;;5036737;28;20108;-72
2022/05/03 07:33:48;;;;;;;6.38;4.20;;;;;;;;;;5037630;28;20476;-73
2022/05/03 07:36:15;;;;;;;9.95;4.00;;;;;;;;;;5038620;28;20494;-73
2022/05/03 07:38:41;;;;;;;8.45;3.63;;;;;;;;;;5042388;28;20044;-73
2022/05/03 07:41:07;;;;;;;5.53;3.58;;;;;;;;;;5046441;28;20044;-73
2022/05/03 07:43:34;;;;;;;11.15;5.03;;;;;;;;;;5041133;28;20036;-73
2022/05/03 07:46:00;;;;;;;7.60;3.78;;;;;;;;;;5041150;28;20055;-73
2022/05/03 07:48:26;;;;;;;9.70;4.38;;;;;;;;;;5040577;28;20450;-72
2022/05/03 07:50:52;;;;;;;7.82;3.83;;;;;;;;;;5039629;28;20108;-72
2022/05/03 07:53:18;;;;;;;6.18;3.58;;;;;;;;;;5040053;28;20039;-73
2022/05/03 07:55:45;;;;;;;10.82;3.55;;;;;;;;;;5036441;28;20049;-73
2022/05/03 07:58:11;;;;;;;3.40;3.10;;;;;;;;;;5038825;28;20109;-72
2022/05/03 08:00:37;;;;;;;7.20;3.88;;;;;;;;;;5033935;28;20040;-72
2022/05/03 08:03:03;;;;;;;8.15;3.83;;;;;;;;;;5036045;28;20112;-72
2022/05/03 08:05:28;;;;;;;9.43;4.22;;;;;;;;;;5041602;28;20152;-72
2022/05/03 08:07:54;;;;;;;8.02;3.65;;;;;;;;;;5038558;28;20025;-73
2022/05/03 08:10:20;;;;;;;5.88;3.83;;;;;;;;;;5041618;28;20935;-72
2022/05/03 08:12:50;;;;;;;8.45;4.18;;;;;;;;;;5041082;28;20116;-72
2022/05/03 08:15:20;;;;;;;8.90;4.60;;;;;;;;;;5038397;28;20547;-71
2022/05/03 08:17:47;;;;;;;8.02;5.32;;;;;;;;;;5036180;28;20382;-72
2022/05/03 08:20:14;;;;;;;15.90;6.35;;;;;;;;;;5042487;28;20148;-72
2022/05/03 08:22:41;;;;;;;9.93;5.03;;;;;;;;;;5038218;28;20029;-72
2022/05/03 08:25:08;;;;;;;10.48;4.93;;;;;;;;;;5038581;28;20032;-72
2022/05/03 08:27:36;;;;;;;8.40;4.00;;;;;;;;;;5040740;28;20110;-71
2022/05/03 08:30:03;;;;;;;7.00;3.97;;;;;;;;;;5036280;28;20502;-71
2022/05/03 08:32:29;;;;;;;7.85;4.47;;;;;;;;;;5040782;28;20109;-69
2022/05/03 08:34:54;;;;;;;9.80;4.55;;;;;;;;;;5038117;28;20124;-71
2022/05/03 08:42:50;;;;;;;6.28;3.30;;;;;;;;;;5040598;28;20531;-70
2022/05/03 08:45:16;;;;;;;7.05;3.75;;;;;;;;;;5039868;28;20033;-71
2022/05/03 08:47:42;;;;;;;4.95;2.80;;;;;;;;;;5033589;28;20037;-69
2022/05/03 08:50:12;;;;;;;7.55;3.80;;;;;;;;;;5044178;28;20039;-70
2022/05/03 08:52:55;;;;;;;4.85;3.90;;;;;;;;;;5036093;28;20033;-70
2022/05/03 08:55:22;;;;;;;10.27;4.55;;;;;;;;;;5039101;28;20145;-70
2022/05/03 08:57:48;;;;;;;9.15;4.45;;;;;;;;;;5033236;28;20056;-69
2022/05/03 09:00:15;;;;;;;11.45;4.95;;;;;;;;;;5034395;28;20470;-69
2022/05/03 09:02:51;;;;;;;12.10;4.68;;;;;;;;;;5041072;28;20045;-69
2022/05/03 09:05:18;;;;;;;9.35;4.65;;;;;;;;;;5036118;28;20406;-70
2022/05/03 09:07:48;;;;;;;10.02;5.13;;;;;;;;;;5044840;28;20024;-69
2022/05/03 09:10:15;;;;;;;10.98;5.00;;;;;;;;;;5036750;28;20029;-69
2022/05/03 09:12:44;;;;;;;8.82;4.47;;;;;;;;;;5036059;28;20029;-69
2022/05/03 09:15:11;;;;;;;6.88;4.72;;;;;;;;;;5032183;28;20036;-69
2022/05/03 09:17:45;;;;;;;10.18;5.20;;;;;;;;;;5041357;28;20103;-63
2022/05/03 09:25:48;;;;;;;18.50;5.97;;;;;;;;;;5038955;28;20571;-68
2022/05/03 09:28:14;;;;;;;11.02;5.78;;;;;;;;;;5042595;28;20025;-69
2022/05/03 09:30:50;;;;;;;14.20;6.68;;;;;;;;;;5044270;28;20625;-68
2022/05/03 09:33:23;;;;;;;11.13;6.13;;;;;;;;;;5038456;28;20047;-68
2022/05/03 09:35:51;;;;;;;9.98;6.07;;;;;;;;;;5036144;28;20111;-68
2022/05/03 09:38:17;;;;;;;12.40;6.88;;;;;;;;;;5043358;28;20102;-68
2022/05/03 09:40:44;;;;;;;13.73;6.18;;;;;;;;;;5041563;28;20477;-68
2022/05/03 09:43:11;;;;;;;8.70;6.00;;;;;;;;;;5040342;28;20030;-68
2022/05/03 09:45:37;;;;;;;17.13;6.45;;;;;;;;;;5041449;28;20104;-68
2022/05/03 09:48:04;;;;;;;13.52;4.82;;;;;;;;;;5036302;28;20046;-67
2022/05/03 09:50:30;;;;;;;10.32;5.90;;;;;;;;;;5041579;28;20493;-67
2022/05/03 09:52:59;;;;;;;9.13;4.75;;;;;;;;;;5036746;28;20064;-68
2022/05/03 09:55:32;;;;;;;8.07;4.95;;;;;;;;;;5038777;28;20060;-68
2022/05/03 09:58:03;;;;;;;8.95;5.22;;;;;;;;;;5041273;28;20040;-68
2022/05/03 10:00:31;;;;;;;11.70;5.97;;;;;;;;;;5039189;28;20075;-67
2022/05/03 10:03:01;;;;;;;6.80;6.15;;;;;;;;;;5040459;28;20040;-67
2022/05/03 10:05:28;;;;;;;12.93;7.28;;;;;;;;;;5039878;28;20025;-67
2022/05/03 10:07:54;;;;;;;6.90;4.63;;;;;;;;;;5041279;28;20047;-67
2022/05/03 10:10:22;;;;;;;13.52;4.82;;;;;;;;;;5043212;28;20033;-67
2022/05/03 10:12:50;;;;;;;8.70;4.38;;;;;;;;;;5038468;28;20087;-66
2022/05/03 10:21:15;;;;;;;10.55;5.30;;;;;;;;;;5034013;28;20102;-66
2022/05/03 10:23:41;;;;;;;12.98;6.95;;;;;;;;;;5035025;28;20029;-66
2022/05/03 10:26:10;;;;;;;15.60;5.72;;;;;;;;;;5039998;28;20030;-66
2022/05/03 10:29:03;;;;;;;10.15;5.82;;;;;;;;;;5042173;28;20030;-67
2022/05/03 10:31:29;;;;;;;10.57;5.63;;;;;;;;;;5043717;28;20118;-66
2022/05/03 10:33:56;;;;;;;17.42;5.88;;;;;;;;;;5036367;28;20088;-65
2022/05/03 10:36:31;;;;;;;12.10;5.45;;;;;;;;;;5037037;28;21119;-67
2022/05/03 10:39:05;;;;;;;8.60;4.95;;;;;;;;;;5036991;28;20100;-56
2022/05/03 10:41:31;;;;;;;13.05;6.05;;;;;;;;;;5046145;28;20455;-65
2022/05/03 10:43:57;;;;;;;10.50;6.25;;;;;;;;;;5039644;28;20115;-66
2022/05/03 10:46:23;;;;;;;9.98;6.07;;;;;;;;;;5035610;28;20036;-66
2022/05/03 10:49:15;;;;;;;12.25;5.40;;;;;;;;;;5040861;28;20044;-65
2022/05/03 10:51:42;;;;;;;9.52;5.50;;;;;;;;;;5039982;28;20091;-65
2022/05/03 10:54:08;;;;;;;24.42;7.47;;;;;;;;;;5038707;28;20041;-65
2022/05/03 10:56:34;;;;;;;8.45;5.78;;;;;;;;;;5036310;28;20100;-65
2022/05/03 10:59:20;;;;;;;12.63;6.18;;;;;;;;;;5037941;28;20116;-66
2022/05/03 11:01:55;;;;;;;10.05;5.57;;;;;;;;;;5036020;28;20116;-65
2022/05/03 11:04:22;;;;;;;9.38;6.32;;;;;;;;;;5034143;28;20033;-65
2022/05/03 11:06:49;;;;;;;15.45;6.40;;;;;;;;;;5036154;28;20030;-66
2022/05/03 11:09:29;;;;;;;7.65;4.88;;;;;;;;;;5039681;28;20537;-65
2022/05/03 11:12:03;;;;;;;10.23;5.32;;;;;;;;;;5034611;28;20033;-65
2022/05/03 11:14:28;;;;;;;9.30;4.65;;;;;;;;;;5047052;28;20025;-65
2022/05/03 11:17:04;;;;;;;9.40;4.68;;;;;;;;;;5039440;28;20397;-65
2022/05/03 11:19:36;;;;;;;6.90;4.18;;;;;;;;;;5037838;28;20045;-65
2022/05/03 11:22:09;;;;;;;5.97;3.83;;;;;;;;;;5038294;28;20120;-65
2022/05/03 11:24:36;;;;;;;5.57;4.10;;;;;;;;;;5036972;28;20059;-65
2022/05/03 11:27:05;;;;;;;8.52;4.40;;;;;;;;;;5043979;28;20025;-65
2022/05/03 11:29:34;;;;;;;6.65;4.38;;;;;;;;;;5041080;28;20037;-65
2022/05/03 11:32:01;;;;;;;10.15;4.32;;;;;;;;;;5033531;28;20104;-65
2022/05/03 11:34:27;;;;;;;7.97;3.72;;;;;;;;;;5038653;28;20033;-65
2022/05/03 11:36:54;;;;;;;10.05;3.95;;;;;;;;;;5039053;28;20063;-66
2022/05/03 11:39:21;;;;;;;5.65;4.00;;;;;;;;;;5036941;28;20057;-64
2022/05/03 11:41:47;;;;;;;5.45;4.03;;;;;;;;;;5036920;28;20103;-66
2022/05/03 11:44:15;;;;;;;10.20;3.72;;;;;;;;;;5033869;28;20038;-65
2022/05/03 11:46:43;;;;;;;4.78;3.75;;;;;;;;;;5038759;28;20532;-65
2022/05/03 11:49:11;;;;;;;6.40;4.38;;;;;;;;;;5039933;28;20036;-65
2022/05/03 11:57:22;;;;;;;11.23;4.55;;;;;;;;;;5036652;28;20030;-65
2022/05/03 11:59:49;;;;;;;10.70;4.05;;;;;;;;;;5032896;28;20119;-65
2022/05/03 12:02:20;;;;;;;6.93;4.03;;;;;;;;;;5040016;28;20021;-65
2022/05/03 12:05:04;;;;;;;7.43;4.00;;;;;;;;;;5035227;28;20030;-64
2022/05/03 12:07:42;;;;;;;5.72;3.40;;;;;;;;;;5040283;28;20470;-65
2022/05/03 12:10:27;;;;;;;6.63;3.40;;;;;;;;;;5037819;28;20452;-64
2022/05/03 12:13:25;;;;;;;4.05;3.45;;;;;;;;;;5036701;28;20072;-65
2022/05/03 12:15:56;;;;;;;8.13;3.83;;;;;;;;;;5033917;28;20037;-65
2022/05/03 12:18:30;;;;;;;7.97;4.13;;;;;;;;;;5039805;28;20037;-64
2022/05/03 12:21:03;;;;;;;9.43;3.47;;;;;;;;;;5038177;28;20052;-65
2022/05/03 12:23:31;;;;;;;3.75;3.38;;;;;;;;;;5038239;28;20021;-64
2022/05/03 12:25:59;;;;;;;13.82;3.53;;;;;;;;;;5035695;28;20658;-65
2022/05/03 12:28:36;;;;;;;11.88;3.83;;;;;;;;;;5033907;28;20029;-65
2022/05/03 12:31:04;;;;;;;10.45;4.47;;;;;;;;;;5038810;28;20035;-64
2022/05/03 12:33:30;;;;;;;13.90;3.83;;;;;;;;;;5039181;28;20033;-65
2022/05/03 12:35:56;;;;;;;6.07;3.83;;;;;;;;;;5033195;28;20047;-65
2022/05/03 12:38:24;;;;;;;11.65;4.03;;;;;;;;;;5037560;28;20027;-64
2022/05/03 12:40:55;;;;;;;6.70;3.75;;;;;;;;;;5039027;28;20025;-65
2022/05/03 12:43:29;;;;;;;5.53;3.78;;;;;;;;;;5040876;28;20124;-65
2022/05/03 12:46:03;;;;;;;4.75;3.80;;;;;;;;;;5034065;28;20045;-65
2022/05/03 12:48:34;;;;;;;6.40;4.60;;;;;;;;;;5037066;28;20037;-65
2022/05/03 12:51:01;;;;;;;6.05;4.10;;;;;;;;;;5034589;28;20540;-66
2022/05/03 12:53:29;;;;;;;8.60;4.75;;;;;;;;;;5040000;28;20047;-64
2022/05/03 12:55:56;;;;;;;14.63;5.68;;;;;;;;;;5040744;28;20056;-65
2022/05/03 12:58:22;;;;;;;9.43;4.15;;;;;;;;;;5040727;28;20112;-65
2022/05/03 13:00:50;;;;;;;4.88;4.35;;;;;;;;;;5038476;28;20568;-64
2022/05/03 13:03:16;;;;;;;11.43;4.72;;;;;;;;;;5035311;28;20497;-65
2022/05/03 13:05:42;;;;;;;11.15;5.00;;;;;;;;;;5037177;28;20034;-65
2022/05/03 13:08:08;;;;;;;6.93;4.47;;;;;;;;;;5040058;28;20112;-65
2022/05/03 13:10:33;;;;;;;6.28;4.20;;;;;;;;;;5038474;28;20117;-65
2022/05/03 13:13:01;;;;;;;6.22;4.05;;;;;;;;;;5037563;28;20057;-64
2022/05/03 13:15:27;;;;;;;8.38;4.65;;;;;;;;;;5040538;28;20477;-65
2022/05/03 13:17:53;;;;;;;5.45;4.05;;;;;;;;;;5036963;28;20091;-66
2022/05/03 13:20:20;;;;;;;5.95;4.35;;;;;;;;;;5041792;28;20055;-65
2022/05/03 13:22:46;;;;;;;8.82;4.82;;;;;;;;;;5048582;28;20159;-65
2022/05/03 13:25:12;;;;;;;16.85;4.30;;;;;;;;;;5054728;28;20033;-65
2022/05/03 13:27:38;;;;;;;5.53;4.10;;;;;;;;;;5039618;28;20025;-61
2022/05/03 13:30:04;;;;;;;14.48;4.93;;;;;;;;;;5039711;28;20040;-65
2022/05/03 13:32:31;;;;;;;9.45;4.63;;;;;;;;;;5038320;28;20112;-65
2022/05/03 13:34:58;;;;;;;8.20;3.63;;;;;;;;;;5039766;28;20029;-65
2022/05/03 13:42:54;;;;;;;8.77;4.15;;;;;;;;;;5040757;28;20063;-65
2022/05/03 13:45:20;;;;;;;8.70;4.57;;;;;;;;;;5039372;28;20394;-64
2022/05/03 13:47:46;;;;;;;7.63;4.03;;;;;;;;;;5034643;28;20082;-65
2022/05/03 13:50:12;;;;;;;9.68;3.83;;;;;;;;;;5041704;28;20033;-66
2022/05/03 13:52:38;;;;;;;5.80;3.72;;;;;;;;;;5044547;28;20028;-65
2022/05/03 13:55:05;;;;;;;6.60;4.28;;;;;;;;;;5046537;28;20136;-65
2022/05/03 13:57:32;;;;;;;7.68;4.63;;;;;;;;;;5039276;28;20017;-65
2022/05/03 13:59:58;;;;;;;5.93;4.10;;;;;;;;;;5042396;28;20018;-64
2022/05/03 14:02:24;;;;;;;6.35;3.85;;;;;;;;;;5036331;28;20079;-65
2022/05/03 14:04:50;;;;;;;8.43;4.00;;;;;;;;;;5041840;28;20030;-65
2022/05/03 14:07:16;;;;;;;4.45;3.83;;;;;;;;;;5043813;28;20022;-65
2022/05/03 14:09:42;;;;;;;8.52;3.78;;;;;;;;;;5044900;28;20072;-65
2022/05/03 14:12:09;;;;;;;4.05;3.70;;;;;;;;;;5042661;28;20024;-64
2022/05/03 14:14:36;;;;;;;10.30;4.00;;;;;;;;;;5035782;28;20064;-65
2022/05/03 14:17:02;;;;;;;7.82;3.85;;;;;;;;;;5037793;28;20041;-64
2022/05/03 14:19:30;;;;;;;9.70;4.00;;;;;;;;;;5042069;28;20028;-65
2022/05/03 14:21:56;;;;;;;11.88;4.28;;;;;;;;;;5037122;28;20072;-64
2022/05/03 14:24:22;;;;;;;8.10;4.07;;;;;;;;;;5036045;28;20466;-65
2022/05/03 14:26:47;;;;;;;10.82;3.47;;;;;;;;;;5035205;28;20032;-65
2022/05/03 14:29:13;;;;;;;5.18;4.00;;;;;;;;;;5037680;28;20426;-65
2022/05/03 14:31:39;;;;;;;4.15;3.75;;;;;;;;;;5033555;28;20063;-63
2022/05/03 14:34:05;;;;;;;5.80;4.00;;;;;;;;;;5038309;28;20113;-65
2022/05/03 14:36:34;;;;;;;6.78;4.07;;;;;;;;;;5039703;28;20033;-65
2022/05/03 14:39:02;;;;;;;8.77;4.43;;;;;;;;;;5043902;28;20095;-64
2022/05/03 14:41:28;;;;;;;13.15;4.88;;;;;;;;;;5035006;28;20489;-65
2022/05/03 14:43:54;;;;;;;7.55;4.10;;;;;;;;;;5038532;28;20386;-64
2022/05/03 14:46:20;;;;;;;8.65;4.53;;;;;;;;;;5035855;28;20033;-64
2022/05/03 14:48:46;;;;;;;11.32;4.43;;;;;;;;;;5036511;28;20029;-64
2022/05/03 14:51:11;;;;;;;14.35;4.28;;;;;;;;;;5040274;28;20086;-65
2022/05/03 14:53:37;;;;;;;5.68;4.15;;;;;;;;;;5036017;28;20033;-65
2022/05/03 15:04:17;;;;;;;9.55;4.10;;;;;;;;;;5036814;28;20044;-64
2022/05/03 15:06:42;;;;;;;6.70;3.95;;;;;;;;;;5038349;28;20029;-65
2022/05/03 15:09:09;;;;;;;12.35;4.32;;;;;;;;;;5036561;28;20460;-65
2022/05/03 15:11:36;;;;;;;10.73;4.60;;;;;;;;;;5036462;28;20111;-65
2022/05/03 15:14:03;;;;;;;6.07;4.13;;;;;;;;;;5037376;28;20539;-65
2022/05/03 15:16:29;;;;;;;7.75;4.25;;;;;;;;;;5035155;28;20363;-65
2022/05/03 15:18:54;;;;;;;5.15;3.78;;;;;;;;;;5046175;28;20033;-65
2022/05/03 15:21:21;;;;;;;5.43;3.97;;;;;;;;;;5041516;28;20017;-65
2022/05/03 15:26:33;;;;;;;8.88;4.00;;;;;;;;;;5034564;28;20589;-65
2022/05/03 15:28:59;;;;;;;9.95;3.60;;;;;;;;;;5032850;28;20441;-64
2022/05/03 15:31:29;;;;;;;4.55;3.13;;;;;;;;;;5036702;28;20029;-66
2022/05/03 15:33:55;;;;;;;5.18;3.30;;;;;;;;;;5037828;28;20033;-65
2022/05/03 15:36:23;;;;;;;5.47;3.33;;;;;;;;;;5035166;28;20494;-65
2022/05/03 15:38:50;;;;;;;7.30;3.72;;;;;;;;;;5033204;28;20068;-66
2022/05/03 15:41:20;;;;;;;5.88;3.40;;;;;;;;;;5043180;28;20118;-65
2022/05/03 15:43:46;;;;;;;5.68;3.30;;;;;;;;;;5035781;28;20057;-65
2022/05/03 15:46:11;;;;;;;6.43;3.35;;;;;;;;;;5039881;28;20064;-65